Time;durP1;ratioP1;P1;durP2;ratioP2;P2;SDS_P1;SDS_P2;PMS_P1;PMS_P2;Temp;Humidity;BMP_temperature;BMP_pressure;BME280_temperature;BME280_humidity;BME280_pressure;Samples;Min_cycle;Max_cycle;Signal;HPM_P1;HPM_P2
2022/04/08 00:02:13;;;;;;;;;;;;;;;16.62;40.83;99156.53;5009758;28;803;-66
2022/04/08 00:04:50;;;;;;;;;;;;;;;16.47;40.71;99152.28;5019157;28;1614;-65
2022/04/08 00:07:16;;;;;;;;;;;;;;;16.52;41.44;99152.97;5019545;28;766;-66
2022/04/08 00:09:41;;;;;;;;;;;;;;;16.66;42.54;99150.13;5013586;28;869;-66
2022/04/08 00:12:07;;;;;;;;;;;;;;;16.79;43.88;99158.56;5019103;28;859;-65
2022/04/08 00:14:33;;;;;;;;;;;;;;;16.90;44.80;99138.00;5011236;28;856;-66
2022/04/08 00:16:58;;;;;;;;;;;;;;;17.03;45.28;99147.28;4999622;28;1898;-66
2022/04/08 00:19:24;;;;;;;;;;;;;;;17.10;45.59;99147.63;5006674;28;1418;-66
2022/04/08 00:21:49;;;;;;;;;;;;;;;17.19;45.70;99133.94;5000302;28;799;-66
2022/04/08 00:24:17;;;;;;;;;;;;;;;17.31;46.03;99136.09;5002328;28;951;-66
2022/04/08 00:26:44;;;;;;;;;;;;;;;17.31;46.68;99125.09;5017248;28;835;-65
2022/04/08 00:29:10;;;;;;;;;;;;;;;17.40;46.68;99132.25;5019293;28;817;-66
2022/04/08 00:31:35;;;;;;;;;;;;;;;17.44;46.49;99124.94;4999001;28;1197;-66
2022/04/08 00:34:00;;;;;;;;;;;;;;;17.44;46.59;99129.66;5000223;28;767;-66
2022/04/08 00:36:26;;;;;;;;;;;;;;;17.52;46.54;99128.84;4999551;28;798;-65
2022/04/08 00:38:51;;;;;;;;;;;;;;;17.62;46.62;99138.75;4999062;28;1985;-66
2022/04/08 00:41:17;;;;;;;;;;;;;;;17.57;46.59;99130.63;5012739;28;859;-66
2022/04/08 00:43:42;;;;;;;;;;;;;;;17.70;46.64;99143.44;5018738;28;985;-66
2022/04/08 00:46:11;;;;;;;;;;;;;;;17.59;46.66;99126.44;5018751;28;758;-65
2022/04/08 00:48:37;;;;;;;;;;;;;;;17.58;46.79;99137.75;5017508;28;942;-66
2022/04/08 00:51:03;;;;;;;;;;;;;;;17.70;46.68;99148.94;5018979;28;851;-65
2022/04/08 00:53:29;;;;;;;;;;;;;;;17.69;46.55;99152.81;5006395;28;1428;-66
2022/04/08 00:55:54;;;;;;;;;;;;;;;17.77;46.60;99153.97;4988777;28;1024;-66
2022/04/08 00:58:20;;;;;;;;;;;;;;;17.74;46.54;99155.41;4964833;28;1984;-67
2022/04/08 01:00:45;;;;;;;;;;;;;;;17.75;46.40;99153.47;4981648;28;866;-67
2022/04/08 01:03:11;;;;;;;;;;;;;;;17.79;46.54;99152.53;4998581;28;744;-66
2022/04/08 01:05:36;;;;;;;;;;;;;;;17.82;46.40;99161.25;5004360;28;793;-66
2022/04/08 01:08:02;;;;;;;;;;;;;;;17.76;46.32;99163.34;5017531;28;811;-65
2022/04/08 01:10:28;;;;;;;;;;;;;;;17.67;46.46;99159.75;5002515;28;787;-66
2022/04/08 01:12:53;;;;;;;;;;;;;;;17.57;46.07;99158.13;4999366;28;909;-65
2022/04/08 01:15:19;;;;;;;;;;;;;;;17.52;46.21;99169.28;4999087;28;858;-64
2022/04/08 01:17:45;;;;;;;;;;;;;;;17.49;46.04;99169.91;5002122;28;1976;-66
2022/04/08 01:20:10;;;;;;;;;;;;;;;17.46;46.17;99171.38;4999970;28;1239;-64
2022/04/08 01:22:36;;;;;;;;;;;;;;;17.53;45.62;99162.63;4999023;28;846;-64
2022/04/08 01:25:04;;;;;;;;;;;;;;;17.43;46.09;99171.97;5007986;28;1457;-63
2022/04/08 01:27:30;;;;;;;;;;;;;;;17.49;45.92;99169.91;5017782;28;827;-64
2022/04/08 01:29:55;;;;;;;;;;;;;;;17.44;45.81;99163.41;5017232;28;845;-64
2022/04/08 01:32:21;;;;;;;;;;;;;;;17.41;45.69;99164.06;5006165;28;1133;-63
2022/04/08 01:34:49;;;;;;;;;;;;;;;17.44;45.52;99173.59;4999216;28;784;-64
2022/04/08 01:37:17;;;;;;;;;;;;;;;17.45;45.48;99178.78;4998592;28;1909;-64
2022/04/08 01:39:43;;;;;;;;;;;;;;;17.42;45.41;99182.16;4998065;28;998;-63
2022/04/08 01:42:08;;;;;;;;;;;;;;;17.35;45.45;99176.34;4998796;28;1050;-63
2022/04/08 01:44:36;;;;;;;;;;;;;;;17.40;45.57;99189.09;5012486;28;905;-63
2022/04/08 01:47:02;;;;;;;;;;;;;;;17.40;45.35;99184.44;5017783;28;861;-66
2022/04/08 01:49:28;;;;;;;;;;;;;;;17.41;45.53;99177.78;5017693;28;807;-65
2022/04/08 01:51:53;;;;;;;;;;;;;;;17.33;45.76;99175.03;5012071;28;1455;-64
2022/04/08 01:54:19;;;;;;;;;;;;;;;17.31;45.57;99169.06;4995120;28;1571;-65
2022/04/08 01:56:44;;;;;;;;;;;;;;;17.24;45.50;99158.53;5005301;28;842;-65
2022/04/08 01:59:10;;;;;;;;;;;;;;;17.32;45.27;99168.72;4999758;28;1979;-65
2022/04/08 02:01:35;;;;;;;;;;;;;;;17.33;45.31;99172.28;4991464;28;799;-64
2022/04/08 02:04:00;;;;;;;;;;;;;;;17.30;45.27;99170.97;5017090;28;820;-66
2022/04/08 02:06:26;;;;;;;;;;;;;;;17.22;45.44;99171.75;4998557;28;803;-65
2022/04/08 02:08:53;;;;;;;;;;;;;;;17.19;45.29;99172.38;4997569;28;885;-65
2022/04/08 02:11:19;;;;;;;;;;;;;;;17.18;45.33;99176.25;5016081;28;810;-65
2022/04/08 02:13:44;;;;;;;;;;;;;;;17.16;45.00;99173.03;5016455;28;835;-66
2022/04/08 02:16:10;;;;;;;;;;;;;;;17.17;44.79;99180.94;5017232;28;810;-66
2022/04/08 02:18:35;;;;;;;;;;;;;;;17.10;44.80;99162.16;5011469;28;1986;-64
2022/04/08 02:21:01;;;;;;;;;;;;;;;17.07;44.88;99168.31;4997939;28;873;-64
2022/04/08 02:23:26;;;;;;;;;;;;;;;17.13;44.54;99179.94;4982161;28;849;-65
2022/04/08 02:25:52;;;;;;;;;;;;;;;17.03;44.40;99181.03;4998134;28;992;-66
2022/04/08 02:28:17;;;;;;;;;;;;;;;17.02;44.69;99171.16;5016599;28;826;-66
2022/04/08 02:30:43;;;;;;;;;;;;;;;17.02;44.39;99173.91;5017035;28;884;-66
2022/04/08 02:33:08;;;;;;;;;;;;;;;17.05;44.62;99176.03;4983777;28;1251;-65
2022/04/08 02:35:34;;;;;;;;;;;;;;;17.06;44.64;99177.66;5006283;28;798;-65
2022/04/08 02:37:59;;;;;;;;;;;;;;;16.99;44.63;99179.25;5016137;28;1906;-65
2022/04/08 02:40:25;;;;;;;;;;;;;;;17.02;44.56;99184.09;5009873;28;925;-65
2022/04/08 02:42:50;;;;;;;;;;;;;;;17.00;44.48;99184.41;5016028;28;818;-68
2022/04/08 02:45:16;;;;;;;;;;;;;;;17.04;44.59;99190.06;5016300;28;814;-67
2022/04/08 02:47:45;;;;;;;;;;;;;;;17.00;44.62;99192.66;5005980;28;743;-67
2022/04/08 02:50:10;;;;;;;;;;;;;;;17.07;44.56;99197.72;4997824;28;784;-66
2022/04/08 02:52:36;;;;;;;;;;;;;;;17.05;44.73;99205.44;4997773;28;889;-68
2022/04/08 02:55:01;;;;;;;;;;;;;;;17.04;44.83;99204.63;4995679;28;1215;-66
2022/04/08 02:57:27;;;;;;;;;;;;;;;16.99;45.37;99202.00;4980012;28;1910;-68
2022/04/08 02:59:53;;;;;;;;;;;;;;;17.09;45.04;99196.25;4996196;28;1220;-67
2022/04/08 03:02:19;;;;;;;;;;;;;;;17.07;45.09;99214.97;5016175;28;874;-66
2022/04/08 03:04:44;;;;;;;;;;;;;;;17.06;44.98;99212.56;4997266;28;1070;-66
2022/04/08 03:07:10;;;;;;;;;;;;;;;17.07;44.91;99220.47;5016330;28;781;-65
2022/04/08 03:09:38;;;;;;;;;;;;;;;17.01;44.83;99219.00;5007374;28;830;-66
2022/04/08 03:12:04;;;;;;;;;;;;;;;17.03;44.86;99229.66;4978861;28;823;-65
2022/04/08 03:14:31;;;;;;;;;;;;;;;16.96;44.50;99241.09;5014241;28;831;-65
2022/04/08 03:16:56;;;;;;;;;;;;;;;16.92;44.26;99234.59;5015979;28;1968;-64
2022/04/08 03:19:22;;;;;;;;;;;;;;;16.97;44.41;99241.88;5008774;28;1175;-67
2022/04/08 03:21:47;;;;;;;;;;;;;;;16.91;44.58;99233.81;5016173;28;807;-62
2022/04/08 03:24:12;;;;;;;;;;;;;;;17.04;44.88;99237.59;5010095;28;1381;-68
2022/04/08 03:26:38;;;;;;;;;;;;;;;17.02;44.93;99231.59;5006056;28;833;-67
2022/04/08 03:29:04;;;;;;;;;;;;;;;17.04;44.69;99226.59;5015655;28;819;-69
2022/04/08 03:31:29;;;;;;;;;;;;;;;17.10;44.95;99238.25;5014527;28;1243;-69
2022/04/08 03:33:55;;;;;;;;;;;;;;;17.08;44.77;99244.06;4997293;28;809;-67
2022/04/08 03:36:20;;;;;;;;;;;;;;;17.08;44.85;99249.56;4996647;28;776;-69
2022/04/08 03:38:46;;;;;;;;;;;;;;;17.03;45.04;99246.16;4994673;28;1979;-69
2022/04/08 03:41:11;;;;;;;;;;;;;;;17.06;44.93;99251.81;4997907;28;1341;-64
2022/04/08 03:43:37;;;;;;;;;;;;;;;16.98;45.10;99260.78;5015857;28;809;-64
2022/04/08 03:46:02;;;;;;;;;;;;;;;17.04;44.74;99270.53;5015097;28;763;-69
2022/04/08 03:48:28;;;;;;;;;;;;;;;17.04;44.86;99269.72;5009012;28;1061;-68
2022/04/08 03:50:54;;;;;;;;;;;;;;;16.98;45.18;99270.97;5009909;28;819;-69
2022/04/08 03:53:20;;;;;;;;;;;;;;;17.05;45.02;99268.59;5015869;28;983;-68
2022/04/08 03:55:45;;;;;;;;;;;;;;;17.05;44.97;99277.63;5010247;28;1050;-65
2022/04/08 03:58:11;;;;;;;;;;;;;;;17.12;44.97;99266.22;4982274;28;1914;-68
2022/04/08 04:00:37;;;;;;;;;;;;;;;17.11;45.13;99275.59;5004239;28;963;-65
2022/04/08 04:03:03;;;;;;;;;;;;;;;17.07;45.36;99275.41;4997993;28;882;-65
2022/04/08 04:05:29;;;;;;;;;;;;;;;17.18;45.39;99280.63;5014870;28;905;-65
2022/04/08 04:07:58;;;;;;;;;;;;;;;17.16;45.35;99269.97;5014552;28;851;-67
2022/04/08 04:10:23;;;;;;;;;;;;;;;17.18;45.40;99273.22;5000551;28;908;-68
2022/04/08 04:12:49;;;;;;;;;;;;;;;17.27;45.71;99278.75;4996845;28;874;-67
2022/04/08 04:15:15;;;;;;;;;;;;;;;17.21;45.53;99282.78;4996646;28;791;-67
2022/04/08 04:17:40;;;;;;;;;;;;;;;17.19;45.42;99287.75;5006953;28;1905;-66
2022/04/08 04:20:06;;;;;;;;;;;;;;;17.19;45.47;99282.25;4998308;28;1057;-67
2022/04/08 04:22:31;;;;;;;;;;;;;;;17.18;45.36;99289.69;4996465;28;986;-66
2022/04/08 04:24:57;;;;;;;;;;;;;;;17.25;45.73;99305.72;4995960;28;893;-70
2022/04/08 04:27:22;;;;;;;;;;;;;;;17.21;45.61;99321.22;4996330;28;699;-66
2022/04/08 04:29:48;;;;;;;;;;;;;;;17.19;45.62;99326.19;5006047;28;855;-67
2022/04/08 04:32:13;;;;;;;;;;;;;;;17.25;45.54;99335.94;5008474;28;1254;-65
2022/04/08 04:34:39;;;;;;;;;;;;;;;17.24;45.40;99337.06;4996491;28;804;-65
2022/04/08 04:37:04;;;;;;;;;;;;;;;17.11;45.50;99333.28;4980400;28;1903;-65
2022/04/08 04:39:30;;;;;;;;;;;;;;;17.15;45.34;99337.00;5000783;28;1153;-67
2022/04/08 04:41:55;;;;;;;;;;;;;;;17.18;45.48;99338.31;5011013;28;846;-65
2022/04/08 04:44:21;;;;;;;;;;;;;;;17.17;45.25;99344.94;4999625;28;933;-66
2022/04/08 04:46:46;;;;;;;;;;;;;;;17.10;45.28;99356.38;4999417;28;854;-65
2022/04/08 04:49:12;;;;;;;;;;;;;;;17.17;45.17;99356.72;4998540;28;846;-65
2022/04/08 04:51:37;;;;;;;;;;;;;;;17.10;45.31;99345.38;4998938;28;873;-67
2022/04/08 04:54:03;;;;;;;;;;;;;;;17.07;45.35;99346.81;4998507;28;1082;-69
2022/04/08 04:56:28;;;;;;;;;;;;;;;17.13;44.99;99346.69;4999062;28;778;-66
2022/04/08 04:58:54;;;;;;;;;;;;;;;17.14;45.33;99367.53;4998799;28;1922;-66
2022/04/08 05:01:19;;;;;;;;;;;;;;;17.16;45.12;99387.25;4999898;28;782;-67
2022/04/08 05:03:44;;;;;;;;;;;;;;;17.21;45.20;99371.47;4999762;28;863;-66
2022/04/08 05:06:10;;;;;;;;;;;;;;;17.17;45.09;99375.16;4999782;28;850;-65
2022/04/08 05:08:35;;;;;;;;;;;;;;;17.22;45.24;99383.25;4999086;28;955;-67
2022/04/08 05:11:01;;;;;;;;;;;;;;;17.26;45.15;99387.00;5016415;28;828;-68
2022/04/08 05:13:26;;;;;;;;;;;;;;;17.27;45.18;99383.16;5017961;28;989;-67
2022/04/08 05:15:52;;;;;;;;;;;;;;;17.32;45.46;99396.75;5001340;28;1220;-66
2022/04/08 05:18:17;;;;;;;;;;;;;;;17.32;45.42;99393.19;5001408;28;1910;-66
2022/04/08 05:20:43;;;;;;;;;;;;;;;17.37;45.63;99393.06;5003794;28;1188;-65
2022/04/08 05:23:08;;;;;;;;;;;;;;;17.35;45.65;99385.16;4999486;28;1240;-67
2022/04/08 05:25:34;;;;;;;;;;;;;;;17.35;45.91;99409.88;4999955;28;767;-66
2022/04/08 05:27:59;;;;;;;;;;;;;;;17.42;45.67;99404.75;4998575;28;834;-65
2022/04/08 05:30:25;;;;;;;;;;;;;;;17.47;45.75;99408.50;4998995;28;818;-63
2022/04/08 05:32:50;;;;;;;;;;;;;;;17.52;45.87;99406.44;5002703;28;1263;-64
2022/04/08 05:35:16;;;;;;;;;;;;;;;17.57;46.10;99402.72;5017880;28;831;-60
2022/04/08 05:37:42;;;;;;;;;;;;;;;17.59;46.11;99417.78;5008677;28;1914;-59
2022/04/08 05:40:09;;;;;;;;;;;;;;;17.59;46.25;99414.25;4992921;28;1696;-59
2022/04/08 05:42:34;;;;;;;;;;;;;;;17.73;46.33;99433.41;4998559;28;1279;-61
2022/04/08 05:45:00;;;;;;;;;;;;;;;17.78;46.30;99420.34;5006499;28;1453;-62
2022/04/08 05:47:28;;;;;;;;;;;;;;;17.78;46.32;99434.09;5005315;28;1461;-63
2022/04/08 05:49:57;;;;;;;;;;;;;;;17.71;46.59;99428.22;4999776;28;1487;-60
2022/04/08 05:52:23;;;;;;;;;;;;;;;17.77;46.24;99435.22;5009458;28;1503;-64
2022/04/08 05:54:48;;;;;;;;;;;;;;;17.84;46.33;99428.44;5003972;28;1190;-61
2022/04/08 05:57:16;;;;;;;;;;;;;;;17.83;46.73;99440.59;4997304;28;1911;-59
2022/04/08 05:59:42;;;;;;;;;;;;;;;17.86;46.42;99431.69;4997515;28;1329;-60
2022/04/08 06:02:08;;;;;;;;;;;;;;;17.85;46.37;99430.06;4999385;28;1302;-59
2022/04/08 06:04:33;;;;;;;;;;;;;;;17.85;46.73;99428.16;4998307;28;1235;-58
2022/04/08 06:06:59;;;;;;;;;;;;;;;17.84;46.44;99428.44;4976084;28;1306;-60
2022/04/08 06:09:24;;;;;;;;;;;;;;;17.69;46.40;99427.72;4994944;28;1361;-59
2022/04/08 06:11:50;;;;;;;;;;;;;;;17.48;45.44;99430.16;4996201;28;1207;-60
2022/04/08 06:14:15;;;;;;;;;;;;;;;17.23;44.04;99432.38;4995977;28;1135;-59
2022/04/08 06:16:42;;;;;;;;;;;;;;;17.00;42.94;99428.81;4994802;28;1341;-58
2022/04/08 06:19:08;;;;;;;;;;;;;;;16.85;41.77;99440.91;4997156;28;1898;-59
2022/04/08 06:21:33;;;;;;;;;;;;;;;16.68;41.40;99440.75;4995039;28;1359;-59
2022/04/08 06:23:58;;;;;;;;;;;;;;;16.51;41.08;99433.94;5000736;28;1390;-58
2022/04/08 06:26:24;;;;;;;;;;;;;;;16.62;41.53;99434.56;5005980;28;1166;-58
2022/04/08 06:28:50;;;;;;;;;;;;;;;16.68;42.52;99436.06;4999813;28;1350;-59
2022/04/08 06:31:16;;;;;;;;;;;;;;;16.83;43.78;99453.31;4999259;28;1223;-58
2022/04/08 06:33:42;;;;;;;;;;;;;;;16.98;44.96;99463.19;4997479;28;1361;-58
2022/04/08 06:36:07;;;;;;;;;;;;;;;17.43;46.97;99453.09;4996630;28;1231;-57
2022/04/08 06:38:33;;;;;;;;;;;;;;;17.88;47.24;99451.44;4995397;28;2021;-59
2022/04/08 06:40:58;;;;;;;;;;;;;;;18.20;46.99;99457.78;4994404;28;1321;-57
2022/04/08 06:43:23;;;;;;;;;;;;;;;18.44;46.70;99469.22;4997399;28;1317;-58
2022/04/08 06:45:49;;;;;;;;;;;;;;;18.23;46.75;99463.47;4996653;28;1384;-58
2022/04/08 06:48:15;;;;;;;;;;;;;;;17.77;46.27;99461.91;4994872;28;1473;-57
2022/04/08 06:50:40;;;;;;;;;;;;;;;17.42;44.81;99456.97;4997202;28;1000;-59
2022/04/08 06:53:06;;;;;;;;;;;;;;;17.09;43.45;99462.66;5001317;28;1337;-59
2022/04/08 06:55:31;;;;;;;;;;;;;;;16.98;42.50;99471.44;4993222;28;1282;-57
2022/04/08 06:57:58;;;;;;;;;;;;;;;16.71;41.74;99482.09;4995986;28;2376;-56
2022/04/08 07:00:23;;;;;;;;;;;;;;;16.55;41.18;99481.59;5004527;28;1337;-57
2022/04/08 07:02:49;;;;;;;;;;;;;;;16.57;41.40;99495.81;4997174;28;1234;-56
2022/04/08 07:05:14;;;;;;;;;;;;;;;16.70;42.56;99496.13;5010725;28;1487;-55
2022/04/08 07:07:40;;;;;;;;;;;;;;;17.06;45.09;99504.47;5008781;28;1389;-54
2022/04/08 07:10:05;;;;;;;;;;;;;;;17.60;47.48;99493.63;4994807;28;1128;-58
2022/04/08 07:12:31;;;;;;;;;;;;;;;18.07;48.47;99503.53;4995955;28;1230;-58
2022/04/08 07:14:56;;;;;;;;;;;;;;;18.43;47.92;99499.81;4994129;28;1278;-57
2022/04/08 07:17:32;;;;;;;;;;;;;;;18.64;47.69;99500.88;4995867;28;1906;-56
2022/04/08 07:19:57;;;;;;;;;;;;;;;18.23;47.41;99517.69;4993572;28;1239;-57
2022/04/08 07:22:23;;;;;;;;;;;;;;;17.87;46.38;99510.34;4996164;28;1078;-56
2022/04/08 07:24:49;;;;;;;;;;;;;;;17.54;44.81;99503.09;4996774;28;1208;-58
2022/04/08 07:27:14;;;;;;;;;;;;;;;17.17;43.28;99523.50;5007590;28;1350;-58
2022/04/08 07:29:40;;;;;;;;;;;;;;;16.97;42.26;99520.06;5003441;28;1246;-56
2022/04/08 07:32:05;;;;;;;;;;;;;;;16.79;41.70;99529.16;4996669;28;1279;-56
2022/04/08 07:34:31;;;;;;;;;;;;;;;16.65;41.14;99527.25;4996015;28;1242;-56
2022/04/08 07:36:56;;;;;;;;;;;;;;;16.52;40.83;99539.03;5002986;28;1294;-56
2022/04/08 07:39:22;;;;;;;;;;;;;;;16.48;41.03;99543.47;4994741;28;1914;-55
2022/04/08 07:41:47;;;;;;;;;;;;;;;16.56;42.16;99542.78;4995593;28;1234;-56
2022/04/08 07:44:12;;;;;;;;;;;;;;;16.82;44.67;99547.81;4994663;28;1357;-57
2022/04/08 07:46:38;;;;;;;;;;;;;;;17.45;47.90;99549.75;4997888;28;1331;-56
2022/04/08 07:49:03;;;;;;;;;;;;;;;17.90;48.78;99548.19;4995571;28;1310;-55
2022/04/08 07:51:29;;;;;;;;;;;;;;;18.32;48.94;99557.06;5004936;28;1472;-57
2022/04/08 07:53:54;;;;;;;;;;;;;;;18.55;48.56;99554.28;4994397;28;1504;-55
2022/04/08 07:56:20;;;;;;;;;;;;;;;18.72;48.38;99550.78;4997936;28;1324;-57
2022/04/08 07:58:47;;;;;;;;;;;;;;;18.51;47.85;99561.53;5006179;28;1975;-56
2022/04/08 08:01:13;;;;;;;;;;;;;;;18.00;46.76;99547.97;4999946;28;1353;-55
2022/04/08 08:03:38;;;;;;;;;;;;;;;17.71;45.28;99556.59;5007334;28;1359;-56
2022/04/08 08:06:04;;;;;;;;;;;;;;;17.38;43.64;99560.38;4997378;28;1345;-54
2022/04/08 08:08:29;;;;;;;;;;;;;;;17.07;42.61;99557.47;4995369;28;1183;-55
2022/04/08 08:10:55;;;;;;;;;;;;;;;16.91;41.76;99560.53;4994326;28;1290;-55
2022/04/08 08:13:21;;;;;;;;;;;;;;;16.80;40.87;99561.00;4998536;28;1361;-56
2022/04/08 08:15:46;;;;;;;;;;;;;;;16.66;40.57;99561.81;5001888;28;1380;-57
2022/04/08 08:18:12;;;;;;;;;;;;;;;16.52;40.54;99550.00;5005878;28;1914;-53
2022/04/08 08:20:37;;;;;;;;;;;;;;;16.67;41.84;99577.16;5002081;28;1138;-56
2022/04/08 08:23:03;;;;;;;;;;;;;;;17.06;44.44;99559.41;4998882;28;1278;-55
2022/04/08 08:25:29;;;;;;;;;;;;;;;17.36;46.87;99559.88;5002006;28;1353;-55
2022/04/08 08:27:55;;;;;;;;;;;;;;;17.85;48.87;99584.06;5018590;28;935;-55
2022/04/08 08:30:20;;;;;;;;;;;;;;;18.34;49.23;99567.75;5011891;28;1169;-56
2022/04/08 08:32:46;;;;;;;;;;;;;;;18.60;49.01;99573.41;4999594;28;1074;-56
2022/04/08 08:35:15;;;;;;;;;;;;;;;18.69;48.97;99573.44;5000162;28;1204;-56
2022/04/08 08:37:40;;;;;;;;;;;;;;;18.05;48.96;99591.84;4999560;28;1914;-57
2022/04/08 08:40:06;;;;;;;;;;;;;;;17.69;47.00;99580.88;4999087;28;1256;-56
2022/04/08 08:42:32;;;;;;;;;;;;;;;17.50;45.36;99576.34;5000341;28;1359;-56
2022/04/08 08:44:57;;;;;;;;;;;;;;;17.27;43.81;99573.50;4999146;28;1300;-56
2022/04/08 08:47:24;;;;;;;;;;;;;;;17.03;42.78;99584.72;4999492;28;1296;-55
2022/04/08 08:49:50;;;;;;;;;;;;;;;16.92;42.05;99569.56;4982772;28;862;-56
2022/04/08 08:52:16;;;;;;;;;;;;;;;16.78;41.14;99553.06;5000031;28;823;-65
2022/04/08 08:54:42;;;;;;;;;;;;;;;16.72;40.84;99593.53;5001977;28;956;-66
2022/04/08 08:57:09;;;;;;;;;;;;;;;16.56;40.55;99578.47;5007863;28;1910;-64
2022/04/08 08:59:36;;;;;;;;;;;;;;;16.63;41.07;99567.09;4999784;28;811;-67
2022/04/08 09:02:02;;;;;;;;;;;;;;;16.72;42.41;99570.78;4981873;28;739;-66
2022/04/08 09:04:27;;;;;;;;;;;;;;;16.91;43.40;99584.41;4999914;28;834;-66
2022/04/08 09:06:53;;;;;;;;;;;;;;;17.00;44.44;99581.75;4999778;28;846;-67
2022/04/08 09:09:30;;;;;;;;;;;;;;;17.07;45.28;99583.00;4999186;28;866;-67
2022/04/08 09:12:28;;;;;;;;;;;;;;;17.26;45.75;99563.66;4998290;28;830;-65
2022/04/08 09:14:55;;;;;;;;;;;;;;;17.27;45.90;99576.25;4956101;28;1200;-65
2022/04/08 09:17:21;;;;;;;;;;;;;;;17.30;46.22;99580.31;4999076;28;1902;-64
2022/04/08 09:19:50;;;;;;;;;;;;;;;17.36;46.48;99581.88;4999221;28;870;-66
2022/04/08 09:22:16;;;;;;;;;;;;;;;17.36;46.32;99592.84;4999152;28;808;-66
2022/04/08 09:24:42;;;;;;;;;;;;;;;17.39;46.33;99605.97;5004472;28;952;-63
2022/04/08 09:27:07;;;;;;;;;;;;;;;17.43;46.38;99606.97;5017813;28;917;-66
2022/04/08 09:29:33;;;;;;;;;;;;;;;17.49;46.34;99606.84;5018111;28;807;-67
2022/04/08 09:31:58;;;;;;;;;;;;;;;17.48;46.69;99610.75;5000248;28;1045;-67
2022/04/08 09:34:24;;;;;;;;;;;;;;;17.53;46.50;99610.63;5014208;28;819;-65
2022/04/08 09:36:49;;;;;;;;;;;;;;;17.61;46.63;99604.38;5017230;28;887;-67
2022/04/08 09:39:15;;;;;;;;;;;;;;;17.66;46.55;99608.97;5012015;28;1919;-65
2022/04/08 09:41:41;;;;;;;;;;;;;;;17.68;46.62;99613.03;4992194;28;1151;-67
2022/04/08 09:44:06;;;;;;;;;;;;;;;17.61;46.82;99605.22;4999305;28;1034;-65
2022/04/08 09:46:32;;;;;;;;;;;;;;;17.67;46.65;99614.16;4998681;28;1082;-66
2022/04/08 09:48:57;;;;;;;;;;;;;;;17.67;46.88;99627.91;4999620;28;1042;-68
2022/04/08 09:51:23;;;;;;;;;;;;;;;17.71;46.56;99611.59;4981318;28;1143;-71
2022/04/08 09:53:55;;;;;;;;;;;;;;;17.73;46.82;99610.16;5000004;28;1122;-66
2022/04/08 09:56:22;;;;;;;;;;;;;;;17.76;46.54;99606.78;5000306;28;1184;-72
2022/04/08 09:58:48;;;;;;;;;;;;;;;17.81;46.56;99610.56;4999119;28;1983;-66
2022/04/08 10:01:14;;;;;;;;;;;;;;;17.82;46.39;99612.19;5002391;28;1034;-68
2022/04/08 10:03:39;;;;;;;;;;;;;;;17.79;46.64;99614.44;5008468;28;780;-65
2022/04/08 10:06:04;;;;;;;;;;;;;;;17.78;46.73;99611.97;5017484;28;912;-65
2022/04/08 10:08:30;;;;;;;;;;;;;;;17.82;46.31;99607.50;5016659;28;849;-67
2022/04/08 10:11:00;;;;;;;;;;;;;;;17.89;46.25;99612.56;4998293;28;748;-67
2022/04/08 10:13:32;;;;;;;;;;;;;;;17.92;46.34;99614.72;4990222;28;776;-67
2022/04/08 10:16:20;;;;;;;;;;;;;;;17.84;46.37;99612.66;5017048;28;839;-67
2022/04/08 10:18:46;;;;;;;;;;;;;;;17.75;46.45;99612.59;5009225;28;1910;-68
2022/04/08 10:21:12;;;;;;;;;;;;;;;17.78;45.94;99612.81;5017073;28;850;-65
2022/04/08 10:23:46;;;;;;;;;;;;;;;17.72;46.04;99619.53;4995940;28;1129;-67
2022/04/08 10:26:22;;;;;;;;;;;;;;;17.73;45.66;99612.91;4996714;28;1185;-67
2022/04/08 10:28:47;;;;;;;;;;;;;;;17.66;45.90;99615.28;4998237;28;826;-68
2022/04/08 10:31:13;;;;;;;;;;;;;;;17.68;45.68;99615.78;4992920;28;1046;-65
2022/04/08 10:33:45;;;;;;;;;;;;;;;17.64;45.40;99624.97;5006129;28;1240;-64
2022/04/08 10:36:10;;;;;;;;;;;;;;;17.64;45.28;99620.25;5003724;28;1083;-67
2022/04/08 10:38:36;;;;;;;;;;;;;;;17.70;45.43;99632.00;4997282;28;1977;-65
2022/04/08 10:41:01;;;;;;;;;;;;;;;17.66;45.33;99636.47;5004201;28;1011;-66
2022/04/08 10:43:27;;;;;;;;;;;;;;;17.65;45.32;99641.13;5002118;28;1243;-67
2022/04/08 10:45:56;;;;;;;;;;;;;;;17.65;45.47;99632.09;5001493;28;1286;-64
2022/04/08 10:48:23;;;;;;;;;;;;;;;17.60;45.34;99631.06;5001136;28;1161;-66
2022/04/08 10:50:48;;;;;;;;;;;;;;;17.57;45.41;99639.13;4997770;28;728;-64
2022/04/08 10:53:16;;;;;;;;;;;;;;;17.61;45.02;99649.22;5016251;28;938;-68
2022/04/08 10:55:51;;;;;;;;;;;;;;;17.57;44.88;99639.13;4984772;28;1282;-67
2022/04/08 10:58:33;;;;;;;;;;;;;;;17.55;44.66;99641.38;4999191;28;1984;-66
2022/04/08 11:00:58;;;;;;;;;;;;;;;17.55;45.07;99639.44;5001068;28;821;-65
2022/04/08 11:03:27;;;;;;;;;;;;;;;17.54;44.77;99639.72;4997501;28;843;-63
2022/04/08 11:05:52;;;;;;;;;;;;;;;17.60;44.71;99644.03;4997115;28;1062;-67
2022/04/08 11:08:18;;;;;;;;;;;;;;;17.57;45.03;99633.63;4996680;28;1220;-64
2022/04/08 11:10:43;;;;;;;;;;;;;;;17.56;44.96;99632.81;5002657;28;1121;-64
2022/04/08 11:13:10;;;;;;;;;;;;;;;17.63;44.70;99651.66;4995953;28;787;-63
2022/04/08 11:15:38;;;;;;;;;;;;;;;17.73;45.17;99645.91;4997032;28;812;-64
2022/04/08 11:18:06;;;;;;;;;;;;;;;17.88;45.34;99652.19;5011054;28;1961;-65
2022/04/08 11:20:32;;;;;;;;;;;;;;;17.73;45.13;99651.41;5016205;28;809;-64
2022/04/08 11:22:58;;;;;;;;;;;;;;;17.82;44.95;99650.69;5015716;28;915;-66
2022/04/08 11:25:30;;;;;;;;;;;;;;;17.90;44.91;99655.44;5001123;28;831;-65
2022/04/08 11:28:05;;;;;;;;;;;;;;;17.78;44.96;99656.81;4997592;28;818;-69
2022/04/08 11:30:32;;;;;;;;;;;;;;;17.64;44.94;99656.00;4996310;28;1002;-66
2022/04/08 11:32:57;;;;;;;;;;;;;;;17.61;45.09;99665.69;4998612;28;1378;-66
2022/04/08 11:35:26;;;;;;;;;;;;;;;17.61;44.60;99667.63;4993368;28;1248;-69
2022/04/08 11:37:51;;;;;;;;;;;;;;;17.56;44.62;99665.78;4996838;28;1969;-69
2022/04/08 11:40:17;;;;;;;;;;;;;;;17.54;44.45;99675.47;5005625;28;893;-63
2022/04/08 11:42:45;;;;;;;;;;;;;;;17.57;44.43;99672.94;4994162;28;1271;-65
2022/04/08 11:45:11;;;;;;;;;;;;;;;17.60;44.34;99672.31;4996454;28;1236;-64
2022/04/08 11:47:40;;;;;;;;;;;;;;;17.53;44.45;99657.34;5001744;28;1291;-65
2022/04/08 11:50:06;;;;;;;;;;;;;;;17.51;44.48;99673.34;5002331;28;1256;-66
2022/04/08 11:52:32;;;;;;;;;;;;;;;17.50;44.28;99671.69;5003060;28;807;-64
2022/04/08 11:55:04;;;;;;;;;;;;;;;17.55;44.24;99671.59;4991815;28;890;-62
2022/04/08 11:57:30;;;;;;;;;;;;;;;17.51;44.00;99676.09;5003311;28;1972;-63
2022/04/08 11:59:56;;;;;;;;;;;;;;;17.48;43.87;99674.75;4996509;28;1082;-66
2022/04/08 12:02:21;;;;;;;;;;;;;;;17.45;43.93;99681.69;5001123;28;1494;-67
2022/04/08 12:04:49;;;;;;;;;;;;;;;17.41;43.90;99666.13;4989938;28;1026;-64
2022/04/08 12:07:24;;;;;;;;;;;;;;;17.41;44.05;99680.66;5002574;28;843;-66
2022/04/08 12:09:51;;;;;;;;;;;;;;;17.41;43.90;99679.84;5003466;28;1203;-63
2022/04/08 12:12:23;;;;;;;;;;;;;;;17.37;43.98;99674.16;5003269;28;810;-62
2022/04/08 12:14:49;;;;;;;;;;;;;;;17.41;43.90;99683.41;5002999;28;835;-64
2022/04/08 12:17:14;;;;;;;;;;;;;;;17.44;43.80;99693.78;5003360;28;1910;-65
2022/04/08 12:19:40;;;;;;;;;;;;;;;17.34;44.08;99696.75;4984455;28;1268;-63
2022/04/08 12:22:12;;;;;;;;;;;;;;;17.36;43.93;99688.19;5002892;28;1267;-66
2022/04/08 12:24:44;;;;;;;;;;;;;;;17.39;43.72;99688.41;5005693;28;1240;-64
2022/04/08 12:27:10;;;;;;;;;;;;;;;17.39;43.77;99693.06;5021930;28;866;-65
2022/04/08 12:29:39;;;;;;;;;;;;;;;17.35;43.78;99701.13;5021716;28;839;-64
2022/04/08 12:32:04;;;;;;;;;;;;;;;17.31;44.03;99693.81;5022046;28;786;-65
2022/04/08 12:34:30;;;;;;;;;;;;;;;17.33;43.76;99699.81;5002312;28;1233;-64
2022/04/08 12:36:55;;;;;;;;;;;;;;;17.31;43.84;99707.53;5022108;28;835;-66
2022/04/08 12:39:20;;;;;;;;;;;;;;;17.30;44.11;99694.91;5009386;28;1914;-64
2022/04/08 12:41:46;;;;;;;;;;;;;;;17.32;43.93;99706.41;5002627;28;1197;-65
2022/04/08 12:44:12;;;;;;;;;;;;;;;17.37;43.78;99698.88;5002877;28;791;-64
2022/04/08 12:46:37;;;;;;;;;;;;;;;17.27;44.03;99699.09;5002930;28;874;-64
2022/04/08 12:49:03;;;;;;;;;;;;;;;17.31;43.83;99694.63;5002960;28;834;-69
2022/04/08 12:51:28;;;;;;;;;;;;;;;17.28;44.11;99690.53;5003198;28;1129;-63
2022/04/08 12:53:54;;;;;;;;;;;;;;;17.24;44.29;99696.97;4997634;28;1200;-66
2022/04/08 12:56:20;;;;;;;;;;;;;;;17.26;44.21;99697.44;4998269;28;1138;-66
2022/04/08 12:58:45;;;;;;;;;;;;;;;17.31;44.10;99697.38;5000184;28;1902;-65